sensor_id;sensor_type;location;lat;lon;timestamp;P1;durP1;ratioP1;P2;durP2;ratioP2
20705;SDS011;10514;49.468;11.044;2022-12-16T00:01:43;20.27;;;10.00;;
20705;SDS011;10514;49.468;11.044;2022-12-16T00:04:08;23.00;;;11.37;;
20705;SDS011;10514;49.468;11.044;2022-12-16T00:06:34;23.47;;;10.63;;
20705;SDS011;10514;49.468;11.044;2022-12-16T00:09:01;19.10;;;11.17;;
20705;SDS011;10514;49.468;11.044;2022-12-16T00:11:27;21.30;;;10.83;;
20705;SDS011;10514;49.468;11.044;2022-12-16T00:13:55;24.70;;;11.17;;
20705;SDS011;10514;49.468;11.044;2022-12-16T00:16:21;21.53;;;11.03;;
20705;SDS011;10514;49.468;11.044;2022-12-16T00:18:47;24.30;;;11.70;;
20705;SDS011;10514;49.468;11.044;2022-12-16T00:21:14;19.77;;;11.07;;
20705;SDS011;10514;49.468;11.044;2022-12-16T00:23:42;20.00;;;11.00;;
20705;SDS011;10514;49.468;11.044;2022-12-16T00:26:08;16.93;;;9.90;;
20705;SDS011;10514;49.468;11.044;2022-12-16T00:28:36;20.67;;;10.53;;
20705;SDS011;10514;49.468;11.044;2022-12-16T00:31:02;18.90;;;10.97;;
20705;SDS011;10514;49.468;11.044;2022-12-16T00:33:28;20.20;;;10.33;;
20705;SDS011;10514;49.468;11.044;2022-12-16T00:35:54;22.63;;;11.00;;
20705;SDS011;10514;49.468;11.044;2022-12-16T00:38:20;19.17;;;9.87;;
20705;SDS011;10514;49.468;11.044;2022-12-16T00:40:47;24.33;;;10.87;;
20705;SDS011;10514;49.468;11.044;2022-12-16T00:43:13;20.67;;;11.50;;
20705;SDS011;10514;49.468;11.044;2022-12-16T00:45:39;22.03;;;12.20;;
20705;SDS011;10514;49.468;11.044;2022-12-16T00:48:05;20.43;;;11.50;;
20705;SDS011;10514;49.468;11.044;2022-12-16T00:50:31;21.77;;;11.27;;
20705;SDS011;10514;49.468;11.044;2022-12-16T00:52:57;21.17;;;11.73;;
20705;SDS011;10514;49.468;11.044;2022-12-16T00:55:23;26.50;;;11.80;;
20705;SDS011;10514;49.468;11.044;2022-12-16T00:57:49;26.67;;;11.97;;
20705;SDS011;10514;49.468;11.044;2022-12-16T01:00:16;24.60;;;12.67;;
20705;SDS011;10514;49.468;11.044;2022-12-16T01:02:43;25.33;;;11.83;;
20705;SDS011;10514;49.468;11.044;2022-12-16T01:05:09;22.87;;;13.27;;
20705;SDS011;10514;49.468;11.044;2022-12-16T01:07:36;20.37;;;11.33;;
20705;SDS011;10514;49.468;11.044;2022-12-16T01:10:02;25.33;;;12.07;;
20705;SDS011;10514;49.468;11.044;2022-12-16T01:12:29;22.13;;;11.90;;
20705;SDS011;10514;49.468;11.044;2022-12-16T01:14:55;24.77;;;12.50;;
20705;SDS011;10514;49.468;11.044;2022-12-16T01:17:21;26.50;;;13.77;;
20705;SDS011;10514;49.468;11.044;2022-12-16T01:19:47;27.53;;;12.13;;
20705;SDS011;10514;49.468;11.044;2022-12-16T01:22:12;21.37;;;11.90;;
20705;SDS011;10514;49.468;11.044;2022-12-16T01:24:38;22.83;;;11.83;;
20705;SDS011;10514;49.468;11.044;2022-12-16T01:27:04;23.37;;;12.23;;
20705;SDS011;10514;49.468;11.044;2022-12-16T01:29:30;21.77;;;12.27;;
20705;SDS011;10514;49.468;11.044;2022-12-16T01:31:56;25.77;;;12.73;;
20705;SDS011;10514;49.468;11.044;2022-12-16T01:34:22;24.10;;;12.33;;
20705;SDS011;10514;49.468;11.044;2022-12-16T01:36:48;25.07;;;12.20;;
20705;SDS011;10514;49.468;11.044;2022-12-16T01:39:14;25.63;;;13.57;;
20705;SDS011;10514;49.468;11.044;2022-12-16T01:41:40;22.73;;;11.83;;
20705;SDS011;10514;49.468;11.044;2022-12-16T01:44:13;25.23;;;12.57;;
20705;SDS011;10514;49.468;11.044;2022-12-16T01:46:40;24.03;;;12.37;;
20705;SDS011;10514;49.468;11.044;2022-12-16T01:49:15;24.13;;;12.87;;
20705;SDS011;10514;49.468;11.044;2022-12-16T01:51:44;29.73;;;13.93;;
20705;SDS011;10514;49.468;11.044;2022-12-16T01:54:12;24.07;;;12.60;;
20705;SDS011;10514;49.468;11.044;2022-12-16T01:56:40;25.07;;;12.63;;
20705;SDS011;10514;49.468;11.044;2022-12-16T01:59:09;23.80;;;12.73;;
20705;SDS011;10514;49.468;11.044;2022-12-16T02:01:37;27.03;;;12.80;;
20705;SDS011;10514;49.468;11.044;2022-12-16T02:04:03;22.03;;;12.37;;
20705;SDS011;10514;49.468;11.044;2022-12-16T02:06:30;31.87;;;12.93;;
20705;SDS011;10514;49.468;11.044;2022-12-16T02:08:57;24.47;;;12.47;;
20705;SDS011;10514;49.468;11.044;2022-12-16T02:11:27;23.00;;;11.97;;
20705;SDS011;10514;49.468;11.044;2022-12-16T02:16:28;21.33;;;10.97;;
20705;SDS011;10514;49.468;11.044;2022-12-16T02:19:19;26.77;;;13.10;;
20705;SDS011;10514;49.468;11.044;2022-12-16T02:24:42;26.70;;;13.70;;
20705;SDS011;10514;49.468;11.044;2022-12-16T02:37:43;21.27;;;11.87;;
20705;SDS011;10514;49.468;11.044;2022-12-16T02:40:21;26.37;;;11.70;;
20705;SDS011;10514;49.468;11.044;2022-12-16T02:42:56;25.70;;;12.17;;
20705;SDS011;10514;49.468;11.044;2022-12-16T02:45:28;22.27;;;11.53;;
20705;SDS011;10514;49.468;11.044;2022-12-16T02:47:55;21.90;;;10.97;;
20705;SDS011;10514;49.468;11.044;2022-12-16T02:50:22;21.43;;;10.97;;
20705;SDS011;10514;49.468;11.044;2022-12-16T02:53:03;22.00;;;10.60;;
20705;SDS011;10514;49.468;11.044;2022-12-16T02:55:35;26.40;;;11.83;;
20705;SDS011;10514;49.468;11.044;2022-12-16T02:58:23;15.77;;;9.77;;
20705;SDS011;10514;49.468;11.044;2022-12-16T03:01:00;20.93;;;11.10;;
20705;SDS011;10514;49.468;11.044;2022-12-16T03:03:30;25.23;;;11.67;;
20705;SDS011;10514;49.468;11.044;2022-12-16T03:05:58;20.93;;;11.60;;
20705;SDS011;10514;49.468;11.044;2022-12-16T03:08:29;21.97;;;11.67;;
20705;SDS011;10514;49.468;11.044;2022-12-16T03:11:00;19.07;;;9.80;;
20705;SDS011;10514;49.468;11.044;2022-12-16T03:13:28;25.27;;;11.10;;
20705;SDS011;10514;49.468;11.044;2022-12-16T03:15:55;24.57;;;10.80;;
20705;SDS011;10514;49.468;11.044;2022-12-16T03:18:21;26.37;;;12.93;;
20705;SDS011;10514;49.468;11.044;2022-12-16T03:20:49;20.77;;;11.90;;
20705;SDS011;10514;49.468;11.044;2022-12-16T03:23:24;22.80;;;12.03;;
20705;SDS011;10514;49.468;11.044;2022-12-16T03:25:55;20.07;;;11.27;;
20705;SDS011;10514;49.468;11.044;2022-12-16T03:28:27;19.77;;;10.87;;
20705;SDS011;10514;49.468;11.044;2022-12-16T03:33:50;17.83;;;10.93;;
20705;SDS011;10514;49.468;11.044;2022-12-16T03:36:20;16.40;;;9.67;;
20705;SDS011;10514;49.468;11.044;2022-12-16T03:38:47;17.70;;;10.20;;
20705;SDS011;10514;49.468;11.044;2022-12-16T03:41:14;21.20;;;11.57;;
20705;SDS011;10514;49.468;11.044;2022-12-16T03:43:40;28.80;;;12.93;;
20705;SDS011;10514;49.468;11.044;2022-12-16T03:46:07;24.07;;;11.63;;
20705;SDS011;10514;49.468;11.044;2022-12-16T03:48:34;24.60;;;10.30;;
20705;SDS011;10514;49.468;11.044;2022-12-16T03:51:00;18.80;;;10.53;;
20705;SDS011;10514;49.468;11.044;2022-12-16T03:53:26;25.27;;;11.93;;
20705;SDS011;10514;49.468;11.044;2022-12-16T03:55:53;28.03;;;12.30;;
20705;SDS011;10514;49.468;11.044;2022-12-16T03:58:19;19.13;;;11.50;;
20705;SDS011;10514;49.468;11.044;2022-12-16T04:00:45;19.70;;;12.00;;
20705;SDS011;10514;49.468;11.044;2022-12-16T04:03:11;20.33;;;10.67;;
20705;SDS011;10514;49.468;11.044;2022-12-16T04:05:37;27.47;;;12.17;;
20705;SDS011;10514;49.468;11.044;2022-12-16T04:08:03;22.10;;;11.90;;
20705;SDS011;10514;49.468;11.044;2022-12-16T04:10:30;20.63;;;10.67;;
20705;SDS011;10514;49.468;11.044;2022-12-16T04:13:14;22.20;;;11.50;;
20705;SDS011;10514;49.468;11.044;2022-12-16T04:15:59;22.27;;;11.27;;
20705;SDS011;10514;49.468;11.044;2022-12-16T04:18:43;19.07;;;10.13;;
20705;SDS011;10514;49.468;11.044;2022-12-16T04:21:29;19.13;;;10.40;;
20705;SDS011;10514;49.468;11.044;2022-12-16T04:24:14;18.00;;;10.07;;
20705;SDS011;10514;49.468;11.044;2022-12-16T04:26:44;21.00;;;10.47;;
20705;SDS011;10514;49.468;11.044;2022-12-16T04:29:29;20.13;;;10.77;;
20705;SDS011;10514;49.468;11.044;2022-12-16T04:31:55;20.27;;;10.17;;
20705;SDS011;10514;49.468;11.044;2022-12-16T04:34:22;17.37;;;9.33;;
20705;SDS011;10514;49.468;11.044;2022-12-16T04:36:55;22.23;;;10.27;;
20705;SDS011;10514;49.468;11.044;2022-12-16T04:39:41;19.80;;;11.20;;
20705;SDS011;10514;49.468;11.044;2022-12-16T04:42:25;19.57;;;10.63;;
20705;SDS011;10514;49.468;11.044;2022-12-16T04:45:10;17.70;;;10.37;;
20705;SDS011;10514;49.468;11.044;2022-12-16T04:47:55;21.10;;;11.27;;
20705;SDS011;10514;49.468;11.044;2022-12-16T04:50:40;21.43;;;9.67;;
20705;SDS011;10514;49.468;11.044;2022-12-16T04:53:25;22.37;;;9.93;;
20705;SDS011;10514;49.468;11.044;2022-12-16T04:56:10;20.33;;;10.43;;
20705;SDS011;10514;49.468;11.044;2022-12-16T04:58:55;18.43;;;9.83;;
20705;SDS011;10514;49.468;11.044;2022-12-16T05:01:39;18.23;;;9.43;;
20705;SDS011;10514;49.468;11.044;2022-12-16T05:04:24;21.73;;;10.30;;
20705;SDS011;10514;49.468;11.044;2022-12-16T05:07:08;19.37;;;9.70;;
20705;SDS011;10514;49.468;11.044;2022-12-16T05:09:53;21.17;;;11.43;;
20705;SDS011;10514;49.468;11.044;2022-12-16T05:12:38;21.27;;;11.20;;
20705;SDS011;10514;49.468;11.044;2022-12-16T05:15:22;20.60;;;11.60;;
20705;SDS011;10514;49.468;11.044;2022-12-16T05:18:08;20.17;;;11.10;;
20705;SDS011;10514;49.468;11.044;2022-12-16T05:20:56;20.37;;;10.60;;
20705;SDS011;10514;49.468;11.044;2022-12-16T05:23:41;26.37;;;11.00;;
20705;SDS011;10514;49.468;11.044;2022-12-16T05:26:25;19.57;;;10.07;;
20705;SDS011;10514;49.468;11.044;2022-12-16T05:29:10;19.70;;;10.13;;
20705;SDS011;10514;49.468;11.044;2022-12-16T05:31:54;16.80;;;9.63;;
20705;SDS011;10514;49.468;11.044;2022-12-16T05:34:39;18.93;;;10.00;;
20705;SDS011;10514;49.468;11.044;2022-12-16T05:37:23;18.10;;;9.50;;
20705;SDS011;10514;49.468;11.044;2022-12-16T05:40:08;21.13;;;11.07;;
20705;SDS011;10514;49.468;11.044;2022-12-16T05:42:53;16.50;;;9.43;;
20705;SDS011;10514;49.468;11.044;2022-12-16T05:45:38;19.50;;;10.73;;
20705;SDS011;10514;49.468;11.044;2022-12-16T05:48:23;18.43;;;9.10;;
20705;SDS011;10514;49.468;11.044;2022-12-16T05:51:08;18.63;;;10.40;;
20705;SDS011;10514;49.468;11.044;2022-12-16T05:53:52;19.13;;;9.63;;
20705;SDS011;10514;49.468;11.044;2022-12-16T05:56:37;18.83;;;9.37;;
20705;SDS011;10514;49.468;11.044;2022-12-16T05:59:21;17.63;;;9.97;;
20705;SDS011;10514;49.468;11.044;2022-12-16T06:02:06;22.67;;;10.17;;
20705;SDS011;10514;49.468;11.044;2022-12-16T06:04:50;19.53;;;10.30;;
20705;SDS011;10514;49.468;11.044;2022-12-16T06:07:35;19.43;;;9.40;;
20705;SDS011;10514;49.468;11.044;2022-12-16T06:10:19;21.60;;;10.07;;
20705;SDS011;10514;49.468;11.044;2022-12-16T06:13:04;18.93;;;9.03;;
20705;SDS011;10514;49.468;11.044;2022-12-16T06:15:49;18.33;;;9.33;;
20705;SDS011;10514;49.468;11.044;2022-12-16T06:18:33;19.80;;;10.23;;
20705;SDS011;10514;49.468;11.044;2022-12-16T06:21:18;13.80;;;8.47;;
20705;SDS011;10514;49.468;11.044;2022-12-16T06:24:02;15.80;;;8.70;;
20705;SDS011;10514;49.468;11.044;2022-12-16T06:26:47;15.67;;;7.73;;
20705;SDS011;10514;49.468;11.044;2022-12-16T06:29:31;13.93;;;7.77;;
20705;SDS011;10514;49.468;11.044;2022-12-16T06:32:15;17.80;;;8.47;;
20705;SDS011;10514;49.468;11.044;2022-12-16T06:35:00;17.23;;;9.20;;
20705;SDS011;10514;49.468;11.044;2022-12-16T06:37:48;14.83;;;8.67;;
20705;SDS011;10514;49.468;11.044;2022-12-16T06:40:32;15.70;;;8.40;;
20705;SDS011;10514;49.468;11.044;2022-12-16T06:43:17;12.70;;;8.07;;
20705;SDS011;10514;49.468;11.044;2022-12-16T06:46:01;16.97;;;8.47;;
20705;SDS011;10514;49.468;11.044;2022-12-16T06:48:46;15.10;;;8.50;;
20705;SDS011;10514;49.468;11.044;2022-12-16T06:51:30;15.60;;;8.03;;
20705;SDS011;10514;49.468;11.044;2022-12-16T06:54:15;16.13;;;8.03;;
20705;SDS011;10514;49.468;11.044;2022-12-16T06:57:00;13.47;;;7.53;;
20705;SDS011;10514;49.468;11.044;2022-12-16T06:59:44;20.77;;;10.37;;
20705;SDS011;10514;49.468;11.044;2022-12-16T07:02:29;18.33;;;9.77;;
20705;SDS011;10514;49.468;11.044;2022-12-16T07:05:13;18.60;;;10.13;;
20705;SDS011;10514;49.468;11.044;2022-12-16T07:07:58;16.27;;;10.10;;
20705;SDS011;10514;49.468;11.044;2022-12-16T07:10:42;25.67;;;10.17;;
20705;SDS011;10514;49.468;11.044;2022-12-16T07:13:44;18.13;;;9.40;;
20705;SDS011;10514;49.468;11.044;2022-12-16T07:16:29;14.17;;;7.93;;
20705;SDS011;10514;49.468;11.044;2022-12-16T07:19:14;17.60;;;9.30;;
20705;SDS011;10514;49.468;11.044;2022-12-16T07:21:59;18.43;;;9.37;;
20705;SDS011;10514;49.468;11.044;2022-12-16T07:24:44;15.50;;;9.43;;
20705;SDS011;10514;49.468;11.044;2022-12-16T07:27:28;17.80;;;8.90;;
20705;SDS011;10514;49.468;11.044;2022-12-16T07:30:13;17.90;;;9.47;;
20705;SDS011;10514;49.468;11.044;2022-12-16T07:32:57;24.33;;;12.37;;
20705;SDS011;10514;49.468;11.044;2022-12-16T07:35:42;18.60;;;9.67;;
20705;SDS011;10514;49.468;11.044;2022-12-16T07:38:28;14.80;;;8.10;;
20705;SDS011;10514;49.468;11.044;2022-12-16T07:41:12;16.50;;;8.37;;
20705;SDS011;10514;49.468;11.044;2022-12-16T07:43:57;21.87;;;12.03;;
20705;SDS011;10514;49.468;11.044;2022-12-16T07:46:41;14.70;;;7.87;;
20705;SDS011;10514;49.468;11.044;2022-12-16T07:49:26;11.33;;;6.97;;
20705;SDS011;10514;49.468;11.044;2022-12-16T07:52:10;15.20;;;8.03;;
20705;SDS011;10514;49.468;11.044;2022-12-16T07:54:55;15.70;;;8.53;;
20705;SDS011;10514;49.468;11.044;2022-12-16T07:57:40;14.03;;;8.17;;
20705;SDS011;10514;49.468;11.044;2022-12-16T08:00:24;15.03;;;8.10;;
20705;SDS011;10514;49.468;11.044;2022-12-16T08:03:13;18.60;;;7.73;;
20705;SDS011;10514;49.468;11.044;2022-12-16T08:06:00;12.03;;;7.17;;
20705;SDS011;10514;49.468;11.044;2022-12-16T08:08:45;15.17;;;7.70;;
20705;SDS011;10514;49.468;11.044;2022-12-16T08:11:29;10.60;;;6.50;;
20705;SDS011;10514;49.468;11.044;2022-12-16T08:14:14;10.43;;;7.10;;
20705;SDS011;10514;49.468;11.044;2022-12-16T08:16:58;13.53;;;6.27;;
20705;SDS011;10514;49.468;11.044;2022-12-16T08:19:43;13.87;;;7.27;;
20705;SDS011;10514;49.468;11.044;2022-12-16T08:22:27;12.03;;;7.30;;
20705;SDS011;10514;49.468;11.044;2022-12-16T08:25:12;12.40;;;7.47;;
20705;SDS011;10514;49.468;11.044;2022-12-16T08:27:57;17.47;;;8.37;;
20705;SDS011;10514;49.468;11.044;2022-12-16T08:30:42;17.70;;;8.40;;
20705;SDS011;10514;49.468;11.044;2022-12-16T08:33:26;16.17;;;8.20;;
20705;SDS011;10514;49.468;11.044;2022-12-16T08:36:26;16.57;;;8.37;;
20705;SDS011;10514;49.468;11.044;2022-12-16T08:39:11;13.23;;;8.07;;
20705;SDS011;10514;49.468;11.044;2022-12-16T08:41:55;14.13;;;9.17;;
20705;SDS011;10514;49.468;11.044;2022-12-16T08:44:40;15.93;;;9.50;;
20705;SDS011;10514;49.468;11.044;2022-12-16T08:47:24;15.40;;;9.27;;
20705;SDS011;10514;49.468;11.044;2022-12-16T08:50:09;17.43;;;9.60;;
20705;SDS011;10514;49.468;11.044;2022-12-16T08:52:53;18.50;;;10.03;;
20705;SDS011;10514;49.468;11.044;2022-12-16T08:55:38;17.87;;;10.63;;
20705;SDS011;10514;49.468;11.044;2022-12-16T08:58:22;18.47;;;10.33;;
20705;SDS011;10514;49.468;11.044;2022-12-16T09:01:07;17.50;;;10.33;;
20705;SDS011;10514;49.468;11.044;2022-12-16T09:03:51;23.47;;;11.60;;
20705;SDS011;10514;49.468;11.044;2022-12-16T09:06:36;19.00;;;9.80;;
20705;SDS011;10514;49.468;11.044;2022-12-16T09:09:21;16.17;;;10.27;;
20705;SDS011;10514;49.468;11.044;2022-12-16T09:12:05;13.90;;;9.30;;
20705;SDS011;10514;49.468;11.044;2022-12-16T09:14:50;21.63;;;11.10;;
20705;SDS011;10514;49.468;11.044;2022-12-16T09:17:34;20.27;;;11.50;;
20705;SDS011;10514;49.468;11.044;2022-12-16T09:20:19;25.33;;;12.90;;
20705;SDS011;10514;49.468;11.044;2022-12-16T09:23:03;29.27;;;13.13;;
20705;SDS011;10514;49.468;11.044;2022-12-16T09:25:48;35.67;;;17.23;;
20705;SDS011;10514;49.468;11.044;2022-12-16T09:28:33;24.23;;;13.47;;
20705;SDS011;10514;49.468;11.044;2022-12-16T09:31:17;22.67;;;11.60;;
20705;SDS011;10514;49.468;11.044;2022-12-16T09:34:02;25.80;;;12.33;;
20705;SDS011;10514;49.468;11.044;2022-12-16T09:36:46;20.20;;;11.63;;
20705;SDS011;10514;49.468;11.044;2022-12-16T09:39:31;18.67;;;10.30;;
20705;SDS011;10514;49.468;11.044;2022-12-16T09:42:40;16.10;;;9.27;;
20705;SDS011;10514;49.468;11.044;2022-12-16T09:45:32;16.67;;;9.07;;
20705;SDS011;10514;49.468;11.044;2022-12-16T09:51:06;13.13;;;8.17;;
20705;SDS011;10514;49.468;11.044;2022-12-16T09:53:52;16.43;;;10.17;;
20705;SDS011;10514;49.468;11.044;2022-12-16T09:56:39;15.80;;;9.47;;
20705;SDS011;10514;49.468;11.044;2022-12-16T09:59:29;15.00;;;9.40;;
20705;SDS011;10514;49.468;11.044;2022-12-16T10:02:15;18.90;;;9.87;;
20705;SDS011;10514;49.468;11.044;2022-12-16T10:05:00;17.50;;;8.93;;
20705;SDS011;10514;49.468;11.044;2022-12-16T10:07:53;19.47;;;9.03;;
20705;SDS011;10514;49.468;11.044;2022-12-16T10:10:53;15.40;;;8.57;;
20705;SDS011;10514;49.468;11.044;2022-12-16T10:13:54;15.57;;;8.80;;
20705;SDS011;10514;49.468;11.044;2022-12-16T10:16:55;13.53;;;8.73;;
20705;SDS011;10514;49.468;11.044;2022-12-16T10:22:42;14.47;;;8.43;;
20705;SDS011;10514;49.468;11.044;2022-12-16T10:25:28;13.90;;;8.27;;
20705;SDS011;10514;49.468;11.044;2022-12-16T10:31:16;16.47;;;9.20;;
20705;SDS011;10514;49.468;11.044;2022-12-16T10:34:01;16.83;;;9.83;;
20705;SDS011;10514;49.468;11.044;2022-12-16T10:36:46;15.03;;;8.73;;
20705;SDS011;10514;49.468;11.044;2022-12-16T10:39:39;16.57;;;9.47;;
20705;SDS011;10514;49.468;11.044;2022-12-16T10:42:26;18.27;;;10.00;;
20705;SDS011;10514;49.468;11.044;2022-12-16T10:45:27;23.93;;;12.03;;
20705;SDS011;10514;49.468;11.044;2022-12-16T10:48:12;35.83;;;14.77;;
20705;SDS011;10514;49.468;11.044;2022-12-16T10:51:00;21.77;;;11.77;;
20705;SDS011;10514;49.468;11.044;2022-12-16T10:53:48;19.03;;;10.40;;
20705;SDS011;10514;49.468;11.044;2022-12-16T10:56:56;19.53;;;10.87;;
20705;SDS011;10514;49.468;11.044;2022-12-16T10:59:39;20.57;;;11.07;;
20705;SDS011;10514;49.468;11.044;2022-12-16T11:02:25;23.00;;;11.33;;
20705;SDS011;10514;49.468;11.044;2022-12-16T11:11:27;23.37;;;10.77;;
20705;SDS011;10514;49.468;11.044;2022-12-16T11:17:10;19.20;;;10.10;;
20705;SDS011;10514;49.468;11.044;2022-12-16T11:23:07;21.77;;;11.20;;
20705;SDS011;10514;49.468;11.044;2022-12-16T11:26:05;17.70;;;10.33;;
20705;SDS011;10514;49.468;11.044;2022-12-16T11:29:24;17.40;;;9.60;;
20705;SDS011;10514;49.468;11.044;2022-12-16T11:35:01;19.60;;;10.03;;
20705;SDS011;10514;49.468;11.044;2022-12-16T11:37:48;16.83;;;10.57;;
20705;SDS011;10514;49.468;11.044;2022-12-16T11:40:35;19.27;;;10.83;;
20705;SDS011;10514;49.468;11.044;2022-12-16T11:43:20;18.20;;;9.90;;
20705;SDS011;10514;49.468;11.044;2022-12-16T11:46:09;18.47;;;11.07;;
20705;SDS011;10514;49.468;11.044;2022-12-16T11:51:40;17.50;;;10.83;;
20705;SDS011;10514;49.468;11.044;2022-12-16T11:54:28;20.07;;;11.00;;
20705;SDS011;10514;49.468;11.044;2022-12-16T11:57:18;20.20;;;11.47;;
20705;SDS011;10514;49.468;11.044;2022-12-16T12:00:03;21.53;;;12.13;;
20705;SDS011;10514;49.468;11.044;2022-12-16T12:05:56;19.70;;;11.37;;
20705;SDS011;10514;49.468;11.044;2022-12-16T12:08:49;16.43;;;10.07;;
20705;SDS011;10514;49.468;11.044;2022-12-16T12:11:35;18.30;;;9.73;;
20705;SDS011;10514;49.468;11.044;2022-12-16T12:23:30;21.87;;;11.53;;
20705;SDS011;10514;49.468;11.044;2022-12-16T12:26:17;22.30;;;11.30;;
20705;SDS011;10514;49.468;11.044;2022-12-16T12:29:19;17.50;;;10.27;;
20705;SDS011;10514;49.468;11.044;2022-12-16T12:35:04;19.60;;;10.47;;
20705;SDS011;10514;49.468;11.044;2022-12-16T12:38:03;21.50;;;12.07;;
20705;SDS011;10514;49.468;11.044;2022-12-16T12:43:53;22.17;;;11.90;;
20705;SDS011;10514;49.468;11.044;2022-12-16T12:46:40;18.53;;;10.20;;
20705;SDS011;10514;49.468;11.044;2022-12-16T12:58:01;21.53;;;10.73;;
20705;SDS011;10514;49.468;11.044;2022-12-16T13:00:49;23.10;;;10.87;;
20705;SDS011;10514;49.468;11.044;2022-12-16T13:06:24;20.23;;;11.00;;
20705;SDS011;10514;49.468;11.044;2022-12-16T13:15:02;19.53;;;10.63;;
20705;SDS011;10514;49.468;11.044;2022-12-16T13:20:51;19.60;;;10.37;;
20705;SDS011;10514;49.468;11.044;2022-12-16T13:23:36;23.13;;;10.70;;
20705;SDS011;10514;49.468;11.044;2022-12-16T13:26:23;21.70;;;10.57;;
20705;SDS011;10514;49.468;11.044;2022-12-16T13:32:19;20.70;;;10.87;;
20705;SDS011;10514;49.468;11.044;2022-12-16T13:37:53;21.50;;;11.30;;
20705;SDS011;10514;49.468;11.044;2022-12-16T13:46:43;19.80;;;10.33;;
20705;SDS011;10514;49.468;11.044;2022-12-16T13:52:41;20.40;;;11.23;;
20705;SDS011;10514;49.468;11.044;2022-12-16T13:58:57;24.40;;;11.80;;
20705;SDS011;10514;49.468;11.044;2022-12-16T14:01:21;22.37;;;10.63;;
20705;SDS011;10514;49.468;11.044;2022-12-16T14:04:07;20.97;;;12.10;;
20705;SDS011;10514;49.468;11.044;2022-12-16T14:06:53;20.57;;;11.70;;
20705;SDS011;10514;49.468;11.044;2022-12-16T14:09:40;21.77;;;12.87;;
20705;SDS011;10514;49.468;11.044;2022-12-16T14:18:41;21.63;;;11.90;;
20705;SDS011;10514;49.468;11.044;2022-12-16T14:21:33;25.43;;;11.43;;
20705;SDS011;10514;49.468;11.044;2022-12-16T14:24:23;18.60;;;10.57;;
20705;SDS011;10514;49.468;11.044;2022-12-16T14:27:17;23.23;;;11.17;;
20705;SDS011;10514;49.468;11.044;2022-12-16T14:30:24;26.73;;;13.33;;
20705;SDS011;10514;49.468;11.044;2022-12-16T14:33:28;26.20;;;12.80;;
20705;SDS011;10514;49.468;11.044;2022-12-16T14:36:22;23.27;;;13.73;;
20705;SDS011;10514;49.468;11.044;2022-12-16T14:39:11;19.53;;;11.97;;
20705;SDS011;10514;49.468;11.044;2022-12-16T14:41:56;25.73;;;13.10;;
20705;SDS011;10514;49.468;11.044;2022-12-16T14:44:44;26.20;;;13.00;;
20705;SDS011;10514;49.468;11.044;2022-12-16T14:47:30;26.00;;;12.80;;
20705;SDS011;10514;49.468;11.044;2022-12-16T14:50:25;23.93;;;11.50;;
20705;SDS011;10514;49.468;11.044;2022-12-16T14:53:15;23.70;;;13.67;;
20705;SDS011;10514;49.468;11.044;2022-12-16T14:59:17;24.23;;;13.97;;
20705;SDS011;10514;49.468;11.044;2022-12-16T15:02:08;23.93;;;13.17;;
20705;SDS011;10514;49.468;11.044;2022-12-16T15:04:55;21.20;;;13.13;;
20705;SDS011;10514;49.468;11.044;2022-12-16T15:07:40;21.30;;;11.50;;
20705;SDS011;10514;49.468;11.044;2022-12-16T15:10:25;22.50;;;12.67;;
20705;SDS011;10514;49.468;11.044;2022-12-16T15:13:15;22.67;;;11.77;;
20705;SDS011;10514;49.468;11.044;2022-12-16T15:16:00;23.27;;;12.33;;
20705;SDS011;10514;49.468;11.044;2022-12-16T15:18:45;28.20;;;12.83;;
20705;SDS011;10514;49.468;11.044;2022-12-16T15:21:35;26.00;;;13.30;;
20705;SDS011;10514;49.468;11.044;2022-12-16T15:24:21;19.30;;;11.83;;
20705;SDS011;10514;49.468;11.044;2022-12-16T15:27:12;22.37;;;12.73;;
20705;SDS011;10514;49.468;11.044;2022-12-16T15:29:56;27.13;;;13.47;;
20705;SDS011;10514;49.468;11.044;2022-12-16T15:32:41;23.43;;;13.60;;
20705;SDS011;10514;49.468;11.044;2022-12-16T15:35:34;21.93;;;11.13;;
20705;SDS011;10514;49.468;11.044;2022-12-16T15:41:04;21.00;;;11.37;;
20705;SDS011;10514;49.468;11.044;2022-12-16T15:43:49;23.60;;;11.57;;
20705;SDS011;10514;49.468;11.044;2022-12-16T15:46:34;31.43;;;13.97;;
20705;SDS011;10514;49.468;11.044;2022-12-16T15:58:13;21.00;;;12.27;;
20705;SDS011;10514;49.468;11.044;2022-12-16T16:00:58;24.50;;;12.13;;
20705;SDS011;10514;49.468;11.044;2022-12-16T16:03:48;26.67;;;12.73;;
20705;SDS011;10514;49.468;11.044;2022-12-16T16:06:32;22.43;;;12.57;;
20705;SDS011;10514;49.468;11.044;2022-12-16T16:12:05;25.53;;;13.30;;
20705;SDS011;10514;49.468;11.044;2022-12-16T16:14:51;23.97;;;11.80;;
20705;SDS011;10514;49.468;11.044;2022-12-16T16:17:36;23.60;;;11.83;;
20705;SDS011;10514;49.468;11.044;2022-12-16T16:20:20;24.63;;;12.70;;
20705;SDS011;10514;49.468;11.044;2022-12-16T16:23:15;22.87;;;11.53;;
20705;SDS011;10514;49.468;11.044;2022-12-16T16:26:00;24.20;;;12.77;;
20705;SDS011;10514;49.468;11.044;2022-12-16T16:28:45;23.23;;;11.53;;
20705;SDS011;10514;49.468;11.044;2022-12-16T16:31:30;24.37;;;13.20;;
20705;SDS011;10514;49.468;11.044;2022-12-16T16:34:14;29.07;;;15.47;;
20705;SDS011;10514;49.468;11.044;2022-12-16T16:36:59;25.53;;;14.43;;
20705;SDS011;10514;49.468;11.044;2022-12-16T16:39:43;29.90;;;14.47;;
20705;SDS011;10514;49.468;11.044;2022-12-16T16:42:28;20.37;;;11.53;;
20705;SDS011;10514;49.468;11.044;2022-12-16T16:45:13;25.53;;;12.30;;
20705;SDS011;10514;49.468;11.044;2022-12-16T16:48:18;29.77;;;12.70;;
20705;SDS011;10514;49.468;11.044;2022-12-16T16:51:02;21.03;;;12.10;;
20705;SDS011;10514;49.468;11.044;2022-12-16T16:53:47;22.37;;;12.47;;
20705;SDS011;10514;49.468;11.044;2022-12-16T16:56:32;23.50;;;12.73;;
20705;SDS011;10514;49.468;11.044;2022-12-16T16:59:17;25.67;;;13.23;;
20705;SDS011;10514;49.468;11.044;2022-12-16T17:02:12;21.13;;;11.40;;
20705;SDS011;10514;49.468;11.044;2022-12-16T17:05:04;21.67;;;12.40;;
20705;SDS011;10514;49.468;11.044;2022-12-16T17:07:49;18.70;;;11.87;;
20705;SDS011;10514;49.468;11.044;2022-12-16T17:10:33;23.43;;;11.67;;
20705;SDS011;10514;49.468;11.044;2022-12-16T17:13:18;23.33;;;11.33;;
20705;SDS011;10514;49.468;11.044;2022-12-16T17:16:03;17.57;;;10.10;;
20705;SDS011;10514;49.468;11.044;2022-12-16T17:18:47;18.87;;;11.17;;
20705;SDS011;10514;49.468;11.044;2022-12-16T17:21:32;19.33;;;10.83;;
20705;SDS011;10514;49.468;11.044;2022-12-16T17:24:17;22.97;;;12.27;;
20705;SDS011;10514;49.468;11.044;2022-12-16T17:27:18;21.37;;;11.17;;
20705;SDS011;10514;49.468;11.044;2022-12-16T17:30:04;22.27;;;11.13;;
20705;SDS011;10514;49.468;11.044;2022-12-16T17:32:55;18.43;;;9.47;;
20705;SDS011;10514;49.468;11.044;2022-12-16T17:35:39;26.20;;;11.73;;
20705;SDS011;10514;49.468;11.044;2022-12-16T17:38:24;26.10;;;11.83;;
20705;SDS011;10514;49.468;11.044;2022-12-16T17:41:08;24.07;;;11.80;;